Picture Rocks, Pennsylvania
Current Conditions -  °F | °C
As of 9:54 AM on Monday 24 Nov 2014 (Local Time) from KIPT Reporting Station
Scattered Clouds Scattered Clouds  
Wind Chill: 62°   Ceiling: Unl
Heat Index: 62°   Visibility: 10mi
Dew Point: 54°   Wind: 22mph
Humidity: 75%   Direction: 150°SSE
Pressure: 29.54"   Gusts: 30mph
Location:  41.28°N, 76.71°W
Report Text: KIPT 241454Z 15019G26KT 10SM SCT025 17/12 A2954 RMK AO2 PK WND 15031/1412 SLP001 T01670122 50001
Loading
Personal Weather Stations






























Interactive Weather Map New forecast layout! Learn more

10-Day Weather Forecast

Advertisements
Track Severe Weather on mobile